フォークランド諸島 の空港の天気 - METARとTAF

マウント・プレザント空軍基地 ( EGYP / MPN ) - フォークランド諸島 フォークランド諸島
飛行場実況気象(Metar)
観測時間10/15 13:50 FKST (10/15 16:50 UTC)
風向・風速南 8m/s
視程10km以上
天気現象
少しの雲 雲底高度 1190m
気温10℃
湿度62%
気圧1023hPa
METAREGYP 151650Z 19015KT 9999 FEW039 10/03 Q1023
過去の天気等 Google飛行場航空写真 Wunderground天気予報

過去48時間のMETAR

飛行場予報(TAF)
発表時間: 10/15 10:51 FKST (10/15 13:51 UTC)
予報対象時間: 15日12時 FKST ~ 16日6時 FKST
風向・風速西南西 9m/s
視程10km以上
全天の4割程度の雲 雲底高度 760m
15日13時 FKST ~ 15日21時 FKST に一時的に
視程7000m
天気現象
全天の8割程度の雲 雲底高度 430m
15日18時 FKST ~ 15日21時 FKST に徐々に
風向・風速南西 2m/s
15日19時 FKST ~ 16日6時 FKST に 確率 40% で一時的に
視程4000m
天気現象雨霧雨
全天の8割程度の雲 雲底高度 120m
15日22時 FKST ~ 16日6時 FKST に 確率 30% で一時的に
視程2000m
天気現象霧雨
全天の8割程度の雲 雲底高度 60m
TAF EGYP 151351Z 1515/1609 24017KT 9999 SCT025
TEMPO 1516/1524 7000 RA BKN014
BECMG 1521/1524 22004KT
PROB40 TEMPO 1522/1609 4000 RADZ BKN004
PROB30 TEMPO 1601/1609 2000 DZ BKN002